sensor_id;sensor_type;location;lat;lon;timestamp;P1;durP1;ratioP1;P2;durP2;ratioP2
68455;SDS011;55437;55.046;38.838;2023-07-29T00:02:01;14.35;;;4.40;;
68455;SDS011;55437;55.046;38.838;2023-07-29T00:04:27;13.25;;;4.57;;
68455;SDS011;55437;55.046;38.838;2023-07-29T00:06:52;11.38;;;3.90;;
68455;SDS011;55437;55.046;38.838;2023-07-29T00:09:18;14.65;;;3.70;;
68455;SDS011;55437;55.046;38.838;2023-07-29T00:11:44;9.85;;;4.30;;
68455;SDS011;55437;55.046;38.838;2023-07-29T00:14:10;10.90;;;3.78;;
68455;SDS011;55437;55.046;38.838;2023-07-29T00:16:36;16.38;;;7.00;;
68455;SDS011;55437;55.046;38.838;2023-07-29T00:19:02;12.90;;;4.72;;
68455;SDS011;55437;55.046;38.838;2023-07-29T00:21:28;12.70;;;4.55;;
68455;SDS011;55437;55.046;38.838;2023-07-29T00:23:53;13.50;;;5.03;;
68455;SDS011;55437;55.046;38.838;2023-07-29T00:26:21;11.68;;;4.50;;
68455;SDS011;55437;55.046;38.838;2023-07-29T00:28:47;16.33;;;4.25;;
68455;SDS011;55437;55.046;38.838;2023-07-29T00:31:13;14.77;;;4.53;;
68455;SDS011;55437;55.046;38.838;2023-07-29T00:33:38;11.10;;;4.32;;
68455;SDS011;55437;55.046;38.838;2023-07-29T00:36:04;14.23;;;3.90;;
68455;SDS011;55437;55.046;38.838;2023-07-29T00:38:30;13.45;;;5.35;;
68455;SDS011;55437;55.046;38.838;2023-07-29T00:41:00;11.45;;;4.57;;
68455;SDS011;55437;55.046;38.838;2023-07-29T00:43:27;10.95;;;4.38;;
68455;SDS011;55437;55.046;38.838;2023-07-29T00:45:53;14.65;;;5.38;;
68455;SDS011;55437;55.046;38.838;2023-07-29T00:48:19;13.15;;;5.57;;
68455;SDS011;55437;55.046;38.838;2023-07-29T00:50:45;14.82;;;6.18;;
68455;SDS011;55437;55.046;38.838;2023-07-29T00:53:12;13.63;;;4.53;;
68455;SDS011;55437;55.046;38.838;2023-07-29T00:55:37;11.80;;;4.88;;
68455;SDS011;55437;55.046;38.838;2023-07-29T00:58:03;10.57;;;4.72;;
68455;SDS011;55437;55.046;38.838;2023-07-29T01:00:32;17.23;;;5.63;;
68455;SDS011;55437;55.046;38.838;2023-07-29T01:02:58;16.58;;;5.88;;
68455;SDS011;55437;55.046;38.838;2023-07-29T01:05:25;18.15;;;6.15;;
68455;SDS011;55437;55.046;38.838;2023-07-29T01:07:59;17.88;;;6.05;;
68455;SDS011;55437;55.046;38.838;2023-07-29T01:13:58;12.27;;;5.53;;
68455;SDS011;55437;55.046;38.838;2023-07-29T01:16:41;27.70;;;12.95;;
68455;SDS011;55437;55.046;38.838;2023-07-29T01:19:09;22.23;;;8.60;;
68455;SDS011;55437;55.046;38.838;2023-07-29T01:22:01;13.73;;;5.35;;
68455;SDS011;55437;55.046;38.838;2023-07-29T01:24:29;13.32;;;5.35;;
68455;SDS011;55437;55.046;38.838;2023-07-29T01:26:55;12.63;;;4.65;;
68455;SDS011;55437;55.046;38.838;2023-07-29T01:29:21;17.33;;;6.80;;
68455;SDS011;55437;55.046;38.838;2023-07-29T01:31:47;16.50;;;5.85;;
68455;SDS011;55437;55.046;38.838;2023-07-29T01:34:20;17.00;;;6.47;;
68455;SDS011;55437;55.046;38.838;2023-07-29T01:36:51;16.40;;;6.50;;
68455;SDS011;55437;55.046;38.838;2023-07-29T01:39:20;15.77;;;6.35;;
68455;SDS011;55437;55.046;38.838;2023-07-29T01:41:48;15.45;;;6.10;;
68455;SDS011;55437;55.046;38.838;2023-07-29T01:44:15;14.82;;;6.03;;
68455;SDS011;55437;55.046;38.838;2023-07-29T01:46:43;14.75;;;7.40;;
68455;SDS011;55437;55.046;38.838;2023-07-29T01:49:09;15.57;;;7.00;;
68455;SDS011;55437;55.046;38.838;2023-07-29T01:51:35;18.25;;;7.32;;
68455;SDS011;55437;55.046;38.838;2023-07-29T01:54:01;15.35;;;8.50;;
68455;SDS011;55437;55.046;38.838;2023-07-29T01:56:27;18.60;;;7.68;;
68455;SDS011;55437;55.046;38.838;2023-07-29T01:58:55;18.33;;;8.55;;
68455;SDS011;55437;55.046;38.838;2023-07-29T02:01:21;20.58;;;9.18;;
68455;SDS011;55437;55.046;38.838;2023-07-29T02:03:47;18.35;;;9.05;;
68455;SDS011;55437;55.046;38.838;2023-07-29T02:06:18;25.65;;;10.90;;
68455;SDS011;55437;55.046;38.838;2023-07-29T02:08:44;22.83;;;11.68;;
68455;SDS011;55437;55.046;38.838;2023-07-29T02:11:10;21.85;;;11.25;;
68455;SDS011;55437;55.046;38.838;2023-07-29T02:13:36;23.92;;;12.95;;
68455;SDS011;55437;55.046;38.838;2023-07-29T02:16:02;29.63;;;14.38;;
68455;SDS011;55437;55.046;38.838;2023-07-29T02:18:28;32.95;;;17.20;;
68455;SDS011;55437;55.046;38.838;2023-07-29T02:20:54;39.58;;;19.80;;
68455;SDS011;55437;55.046;38.838;2023-07-29T02:23:20;37.95;;;19.23;;
68455;SDS011;55437;55.046;38.838;2023-07-29T02:25:46;45.17;;;20.17;;
68455;SDS011;55437;55.046;38.838;2023-07-29T02:28:11;43.05;;;19.33;;
68455;SDS011;55437;55.046;38.838;2023-07-29T02:30:41;38.72;;;19.58;;
68455;SDS011;55437;55.046;38.838;2023-07-29T02:33:10;37.90;;;18.63;;
68455;SDS011;55437;55.046;38.838;2023-07-29T02:35:36;39.55;;;19.20;;
68455;SDS011;55437;55.046;38.838;2023-07-29T02:38:02;35.95;;;19.15;;
68455;SDS011;55437;55.046;38.838;2023-07-29T02:40:27;39.25;;;17.83;;
68455;SDS011;55437;55.046;38.838;2023-07-29T02:42:55;35.47;;;16.58;;
68455;SDS011;55437;55.046;38.838;2023-07-29T02:45:20;35.85;;;16.63;;
68455;SDS011;55437;55.046;38.838;2023-07-29T02:47:46;30.17;;;16.63;;
68455;SDS011;55437;55.046;38.838;2023-07-29T02:50:12;30.25;;;15.13;;
68455;SDS011;55437;55.046;38.838;2023-07-29T02:52:38;29.55;;;15.13;;
68455;SDS011;55437;55.046;38.838;2023-07-29T02:55:04;29.67;;;14.32;;
68455;SDS011;55437;55.046;38.838;2023-07-29T02:57:30;28.40;;;14.57;;
68455;SDS011;55437;55.046;38.838;2023-07-29T02:59:56;26.02;;;14.18;;
68455;SDS011;55437;55.046;38.838;2023-07-29T03:02:22;29.60;;;15.00;;
68455;SDS011;55437;55.046;38.838;2023-07-29T03:04:48;30.38;;;16.48;;
68455;SDS011;55437;55.046;38.838;2023-07-29T03:07:14;35.35;;;16.52;;
68455;SDS011;55437;55.046;38.838;2023-07-29T03:09:40;39.25;;;18.38;;
68455;SDS011;55437;55.046;38.838;2023-07-29T03:12:08;44.85;;;19.38;;
68455;SDS011;55437;55.046;38.838;2023-07-29T03:14:33;37.33;;;17.42;;
68455;SDS011;55437;55.046;38.838;2023-07-29T03:17:03;37.47;;;17.23;;
68455;SDS011;55437;55.046;38.838;2023-07-29T03:19:31;34.72;;;17.10;;
68455;SDS011;55437;55.046;38.838;2023-07-29T03:21:58;30.38;;;15.32;;
68455;SDS011;55437;55.046;38.838;2023-07-29T03:24:23;25.05;;;12.57;;
68455;SDS011;55437;55.046;38.838;2023-07-29T03:26:49;28.75;;;14.27;;
68455;SDS011;55437;55.046;38.838;2023-07-29T03:29:15;25.05;;;11.52;;
68455;SDS011;55437;55.046;38.838;2023-07-29T03:31:41;25.58;;;10.55;;
68455;SDS011;55437;55.046;38.838;2023-07-29T03:34:07;17.75;;;8.82;;
68455;SDS011;55437;55.046;38.838;2023-07-29T03:36:33;17.85;;;8.18;;
68455;SDS011;55437;55.046;38.838;2023-07-29T03:38:59;12.70;;;6.53;;
68455;SDS011;55437;55.046;38.838;2023-07-29T03:41:26;12.80;;;5.53;;
68455;SDS011;55437;55.046;38.838;2023-07-29T03:43:52;12.27;;;4.85;;
68455;SDS011;55437;55.046;38.838;2023-07-29T03:46:17;14.30;;;4.70;;
68455;SDS011;55437;55.046;38.838;2023-07-29T03:48:47;11.73;;;4.97;;
68455;SDS011;55437;55.046;38.838;2023-07-29T03:51:13;10.95;;;5.03;;
68455;SDS011;55437;55.046;38.838;2023-07-29T03:53:39;11.05;;;4.68;;
68455;SDS011;55437;55.046;38.838;2023-07-29T03:56:05;13.10;;;4.60;;
68455;SDS011;55437;55.046;38.838;2023-07-29T03:58:31;11.82;;;4.95;;
68455;SDS011;55437;55.046;38.838;2023-07-29T04:00:57;9.18;;;3.53;;
68455;SDS011;55437;55.046;38.838;2023-07-29T04:03:23;8.88;;;3.78;;
68455;SDS011;55437;55.046;38.838;2023-07-29T04:05:51;7.78;;;3.40;;
68455;SDS011;55437;55.046;38.838;2023-07-29T04:08:18;10.32;;;3.33;;
68455;SDS011;55437;55.046;38.838;2023-07-29T04:10:44;9.80;;;3.20;;
68455;SDS011;55437;55.046;38.838;2023-07-29T04:13:09;9.63;;;3.42;;
68455;SDS011;55437;55.046;38.838;2023-07-29T04:15:35;9.13;;;3.17;;
68455;SDS011;55437;55.046;38.838;2023-07-29T04:18:02;15.32;;;4.07;;
68455;SDS011;55437;55.046;38.838;2023-07-29T04:20:28;15.38;;;4.50;;
68455;SDS011;55437;55.046;38.838;2023-07-29T04:23:12;14.18;;;4.07;;
68455;SDS011;55437;55.046;38.838;2023-07-29T04:25:38;11.75;;;4.07;;
68455;SDS011;55437;55.046;38.838;2023-07-29T04:28:04;10.63;;;2.92;;
68455;SDS011;55437;55.046;38.838;2023-07-29T04:30:30;8.52;;;2.80;;
68455;SDS011;55437;55.046;38.838;2023-07-29T04:32:56;8.57;;;2.92;;
68455;SDS011;55437;55.046;38.838;2023-07-29T04:35:22;8.38;;;2.67;;
68455;SDS011;55437;55.046;38.838;2023-07-29T04:37:48;9.20;;;3.00;;
68455;SDS011;55437;55.046;38.838;2023-07-29T04:40:14;7.68;;;2.50;;
68455;SDS011;55437;55.046;38.838;2023-07-29T04:42:40;8.85;;;3.22;;
68455;SDS011;55437;55.046;38.838;2023-07-29T04:45:05;8.50;;;3.20;;
68455;SDS011;55437;55.046;38.838;2023-07-29T04:47:32;6.97;;;2.85;;
68455;SDS011;55437;55.046;38.838;2023-07-29T04:49:58;7.70;;;2.80;;
68455;SDS011;55437;55.046;38.838;2023-07-29T04:52:24;12.02;;;2.83;;
68455;SDS011;55437;55.046;38.838;2023-07-29T04:54:51;11.48;;;2.80;;
68455;SDS011;55437;55.046;38.838;2023-07-29T04:57:18;8.13;;;2.95;;
68455;SDS011;55437;55.046;38.838;2023-07-29T04:59:43;9.52;;;2.90;;
68455;SDS011;55437;55.046;38.838;2023-07-29T05:02:09;10.07;;;2.78;;
68455;SDS011;55437;55.046;38.838;2023-07-29T05:04:36;6.65;;;1.95;;
68455;SDS011;55437;55.046;38.838;2023-07-29T05:07:02;8.70;;;2.28;;
68455;SDS011;55437;55.046;38.838;2023-07-29T05:09:28;9.68;;;2.35;;
68455;SDS011;55437;55.046;38.838;2023-07-29T05:11:54;8.25;;;2.55;;
68455;SDS011;55437;55.046;38.838;2023-07-29T05:14:20;13.65;;;2.67;;
68455;SDS011;55437;55.046;38.838;2023-07-29T05:16:46;12.52;;;2.45;;
68455;SDS011;55437;55.046;38.838;2023-07-29T05:19:13;11.43;;;2.65;;
68455;SDS011;55437;55.046;38.838;2023-07-29T05:21:39;10.68;;;2.20;;
68455;SDS011;55437;55.046;38.838;2023-07-29T05:24:05;14.25;;;3.03;;
68455;SDS011;55437;55.046;38.838;2023-07-29T05:26:30;9.85;;;2.72;;
68455;SDS011;55437;55.046;38.838;2023-07-29T05:28:56;12.75;;;3.88;;
68455;SDS011;55437;55.046;38.838;2023-07-29T05:31:22;10.73;;;2.58;;
68455;SDS011;55437;55.046;38.838;2023-07-29T05:33:48;8.90;;;2.33;;
68455;SDS011;55437;55.046;38.838;2023-07-29T05:36:15;9.07;;;2.25;;
68455;SDS011;55437;55.046;38.838;2023-07-29T05:38:41;10.57;;;2.40;;
68455;SDS011;55437;55.046;38.838;2023-07-29T05:41:07;8.98;;;3.17;;
68455;SDS011;55437;55.046;38.838;2023-07-29T05:43:34;11.10;;;2.55;;
68455;SDS011;55437;55.046;38.838;2023-07-29T05:46:00;11.00;;;3.15;;
68455;SDS011;55437;55.046;38.838;2023-07-29T05:48:26;7.78;;;2.70;;
68455;SDS011;55437;55.046;38.838;2023-07-29T05:50:52;9.63;;;3.05;;
68455;SDS011;55437;55.046;38.838;2023-07-29T05:53:18;6.00;;;1.95;;
68455;SDS011;55437;55.046;38.838;2023-07-29T05:55:44;6.85;;;2.50;;
68455;SDS011;55437;55.046;38.838;2023-07-29T05:58:10;7.45;;;2.80;;
68455;SDS011;55437;55.046;38.838;2023-07-29T06:00:36;17.08;;;7.25;;
68455;SDS011;55437;55.046;38.838;2023-07-29T06:03:02;9.40;;;3.15;;
68455;SDS011;55437;55.046;38.838;2023-07-29T06:05:28;9.57;;;3.25;;
68455;SDS011;55437;55.046;38.838;2023-07-29T06:07:54;8.88;;;3.08;;
68455;SDS011;55437;55.046;38.838;2023-07-29T06:10:19;12.35;;;4.85;;
68455;SDS011;55437;55.046;38.838;2023-07-29T06:12:47;8.13;;;4.25;;
68455;SDS011;55437;55.046;38.838;2023-07-29T06:15:13;10.32;;;4.78;;
68455;SDS011;55437;55.046;38.838;2023-07-29T06:17:41;10.27;;;5.30;;
68455;SDS011;55437;55.046;38.838;2023-07-29T06:20:07;12.98;;;7.55;;
68455;SDS011;55437;55.046;38.838;2023-07-29T06:22:34;13.90;;;7.97;;
68455;SDS011;55437;55.046;38.838;2023-07-29T06:25:00;19.70;;;9.63;;
68455;SDS011;55437;55.046;38.838;2023-07-29T06:27:26;20.27;;;11.50;;
68455;SDS011;55437;55.046;38.838;2023-07-29T06:29:52;33.25;;;20.00;;
68455;SDS011;55437;55.046;38.838;2023-07-29T06:32:18;27.05;;;14.95;;
68455;SDS011;55437;55.046;38.838;2023-07-29T06:34:44;26.13;;;13.93;;
68455;SDS011;55437;55.046;38.838;2023-07-29T06:37:10;23.80;;;12.77;;
68455;SDS011;55437;55.046;38.838;2023-07-29T06:42:26;21.52;;;11.93;;
68455;SDS011;55437;55.046;38.838;2023-07-29T06:44:52;28.80;;;15.18;;
68455;SDS011;55437;55.046;38.838;2023-07-29T06:47:18;22.30;;;11.90;;
68455;SDS011;55437;55.046;38.838;2023-07-29T06:49:45;21.85;;;11.77;;
68455;SDS011;55437;55.046;38.838;2023-07-29T06:52:30;18.65;;;10.40;;
68455;SDS011;55437;55.046;38.838;2023-07-29T06:54:56;21.80;;;12.38;;
68455;SDS011;55437;55.046;38.838;2023-07-29T06:57:22;19.77;;;10.48;;
68455;SDS011;55437;55.046;38.838;2023-07-29T06:59:49;17.50;;;9.50;;
68455;SDS011;55437;55.046;38.838;2023-07-29T07:02:14;17.95;;;10.70;;
68455;SDS011;55437;55.046;38.838;2023-07-29T07:04:40;26.75;;;14.30;;
68455;SDS011;55437;55.046;38.838;2023-07-29T07:07:06;21.23;;;9.73;;
68455;SDS011;55437;55.046;38.838;2023-07-29T07:09:32;18.30;;;9.45;;
68455;SDS011;55437;55.046;38.838;2023-07-29T07:11:59;20.08;;;9.57;;
68455;SDS011;55437;55.046;38.838;2023-07-29T07:14:24;24.90;;;13.13;;
68455;SDS011;55437;55.046;38.838;2023-07-29T07:16:52;20.38;;;10.02;;
68455;SDS011;55437;55.046;38.838;2023-07-29T07:19:18;20.73;;;10.05;;
68455;SDS011;55437;55.046;38.838;2023-07-29T07:21:44;23.42;;;10.90;;
68455;SDS011;55437;55.046;38.838;2023-07-29T07:24:10;25.55;;;11.52;;
68455;SDS011;55437;55.046;38.838;2023-07-29T07:26:38;29.67;;;11.65;;
68455;SDS011;55437;55.046;38.838;2023-07-29T07:29:04;25.65;;;10.73;;
68455;SDS011;55437;55.046;38.838;2023-07-29T07:31:32;22.33;;;9.98;;
68455;SDS011;55437;55.046;38.838;2023-07-29T07:33:59;21.67;;;9.95;;
68455;SDS011;55437;55.046;38.838;2023-07-29T07:36:26;21.20;;;9.45;;
68455;SDS011;55437;55.046;38.838;2023-07-29T07:38:52;20.17;;;9.82;;
68455;SDS011;55437;55.046;38.838;2023-07-29T07:41:18;19.67;;;9.68;;
68455;SDS011;55437;55.046;38.838;2023-07-29T07:43:44;23.92;;;9.73;;
68455;SDS011;55437;55.046;38.838;2023-07-29T07:46:10;19.85;;;10.00;;
68455;SDS011;55437;55.046;38.838;2023-07-29T07:48:36;21.08;;;9.95;;
68455;SDS011;55437;55.046;38.838;2023-07-29T07:51:13;21.65;;;9.75;;
68455;SDS011;55437;55.046;38.838;2023-07-29T07:53:39;21.05;;;10.85;;
68455;SDS011;55437;55.046;38.838;2023-07-29T07:56:05;22.42;;;10.02;;
68455;SDS011;55437;55.046;38.838;2023-07-29T07:58:33;21.63;;;9.63;;
68455;SDS011;55437;55.046;38.838;2023-07-29T08:01:24;26.27;;;11.30;;
68455;SDS011;55437;55.046;38.838;2023-07-29T08:03:50;22.55;;;10.48;;
68455;SDS011;55437;55.046;38.838;2023-07-29T08:06:16;17.63;;;9.13;;
68455;SDS011;55437;55.046;38.838;2023-07-29T08:08:42;21.80;;;11.07;;
68455;SDS011;55437;55.046;38.838;2023-07-29T08:11:08;19.20;;;8.93;;
68455;SDS011;55437;55.046;38.838;2023-07-29T08:13:34;18.67;;;9.90;;
68455;SDS011;55437;55.046;38.838;2023-07-29T08:16:00;18.20;;;8.65;;
68455;SDS011;55437;55.046;38.838;2023-07-29T08:18:26;17.02;;;8.55;;
68455;SDS011;55437;55.046;38.838;2023-07-29T08:20:56;19.27;;;8.80;;
68455;SDS011;55437;55.046;38.838;2023-07-29T08:23:26;18.35;;;9.43;;
68455;SDS011;55437;55.046;38.838;2023-07-29T08:25:57;21.95;;;10.88;;
68455;SDS011;55437;55.046;38.838;2023-07-29T08:28:37;21.65;;;10.05;;
68455;SDS011;55437;55.046;38.838;2023-07-29T08:31:04;20.10;;;9.38;;
68455;SDS011;55437;55.046;38.838;2023-07-29T08:33:32;24.42;;;11.95;;
68455;SDS011;55437;55.046;38.838;2023-07-29T08:35:59;20.73;;;10.00;;
68455;SDS011;55437;55.046;38.838;2023-07-29T08:38:25;18.98;;;9.27;;
68455;SDS011;55437;55.046;38.838;2023-07-29T08:43:32;19.25;;;9.52;;
68455;SDS011;55437;55.046;38.838;2023-07-29T08:45:58;22.27;;;10.82;;
68455;SDS011;55437;55.046;38.838;2023-07-29T08:53:36;22.77;;;10.43;;
68455;SDS011;55437;55.046;38.838;2023-07-29T08:56:03;28.98;;;14.43;;
68455;SDS011;55437;55.046;38.838;2023-07-29T08:58:30;16.80;;;9.23;;
68455;SDS011;55437;55.046;38.838;2023-07-29T09:00:57;16.08;;;8.00;;
68455;SDS011;55437;55.046;38.838;2023-07-29T09:03:23;23.75;;;13.00;;
68455;SDS011;55437;55.046;38.838;2023-07-29T09:05:50;14.52;;;7.07;;
68455;SDS011;55437;55.046;38.838;2023-07-29T09:08:16;15.57;;;8.18;;
68455;SDS011;55437;55.046;38.838;2023-07-29T09:10:43;17.17;;;9.85;;
68455;SDS011;55437;55.046;38.838;2023-07-29T09:13:09;14.18;;;7.60;;
68455;SDS011;55437;55.046;38.838;2023-07-29T09:15:35;11.80;;;6.22;;
68455;SDS011;55437;55.046;38.838;2023-07-29T09:18:10;18.30;;;10.70;;
68455;SDS011;55437;55.046;38.838;2023-07-29T09:20:42;11.10;;;5.43;;
68455;SDS011;55437;55.046;38.838;2023-07-29T09:23:09;12.85;;;6.10;;
68455;SDS011;55437;55.046;38.838;2023-07-29T09:25:36;11.90;;;6.50;;
68455;SDS011;55437;55.046;38.838;2023-07-29T09:28:07;13.55;;;7.25;;
68455;SDS011;55437;55.046;38.838;2023-07-29T09:30:53;12.93;;;5.13;;
68455;SDS011;55437;55.046;38.838;2023-07-29T09:33:19;12.45;;;5.38;;
68455;SDS011;55437;55.046;38.838;2023-07-29T09:35:45;11.35;;;4.97;;
68455;SDS011;55437;55.046;38.838;2023-07-29T09:38:14;12.05;;;6.15;;
68455;SDS011;55437;55.046;38.838;2023-07-29T09:40:41;10.15;;;4.47;;
68455;SDS011;55437;55.046;38.838;2023-07-29T09:43:07;8.32;;;4.30;;
68455;SDS011;55437;55.046;38.838;2023-07-29T09:45:35;10.45;;;4.25;;
68455;SDS011;55437;55.046;38.838;2023-07-29T09:48:03;10.05;;;4.55;;
68455;SDS011;55437;55.046;38.838;2023-07-29T09:50:35;9.40;;;4.32;;
68455;SDS011;55437;55.046;38.838;2023-07-29T09:53:02;10.43;;;4.80;;
68455;SDS011;55437;55.046;38.838;2023-07-29T09:55:29;10.55;;;5.78;;
68455;SDS011;55437;55.046;38.838;2023-07-29T10:00:30;9.38;;;3.78;;
68455;SDS011;55437;55.046;38.838;2023-07-29T10:02:57;9.98;;;4.35;;
68455;SDS011;55437;55.046;38.838;2023-07-29T10:05:27;10.90;;;4.38;;
68455;SDS011;55437;55.046;38.838;2023-07-29T10:07:55;9.35;;;4.45;;
68455;SDS011;55437;55.046;38.838;2023-07-29T10:10:23;8.45;;;3.95;;
68455;SDS011;55437;55.046;38.838;2023-07-29T10:12:49;8.98;;;4.18;;
68455;SDS011;55437;55.046;38.838;2023-07-29T10:16:00;9.50;;;4.65;;
68455;SDS011;55437;55.046;38.838;2023-07-29T10:18:30;8.65;;;4.07;;
68455;SDS011;55437;55.046;38.838;2023-07-29T10:20:57;8.20;;;3.45;;
68455;SDS011;55437;55.046;38.838;2023-07-29T10:23:25;15.27;;;5.63;;
68455;SDS011;55437;55.046;38.838;2023-07-29T10:26:02;8.88;;;3.78;;
68455;SDS011;55437;55.046;38.838;2023-07-29T10:28:31;8.27;;;3.58;;
68455;SDS011;55437;55.046;38.838;2023-07-29T10:30:58;10.18;;;4.25;;
68455;SDS011;55437;55.046;38.838;2023-07-29T10:33:25;9.98;;;3.22;;
68455;SDS011;55437;55.046;38.838;2023-07-29T10:35:55;9.15;;;3.28;;
68455;SDS011;55437;55.046;38.838;2023-07-29T10:38:25;10.52;;;3.72;;
68455;SDS011;55437;55.046;38.838;2023-07-29T10:40:55;7.82;;;3.30;;
68455;SDS011;55437;55.046;38.838;2023-07-29T10:43:24;7.70;;;3.13;;
68455;SDS011;55437;55.046;38.838;2023-07-29T10:45:58;8.43;;;3.25;;
68455;SDS011;55437;55.046;38.838;2023-07-29T10:48:51;7.93;;;3.55;;
68455;SDS011;55437;55.046;38.838;2023-07-29T10:51:28;9.48;;;3.72;;
68455;SDS011;55437;55.046;38.838;2023-07-29T10:54:02;7.85;;;3.25;;
68455;SDS011;55437;55.046;38.838;2023-07-29T10:56:29;9.32;;;3.72;;
68455;SDS011;55437;55.046;38.838;2023-07-29T10:59:52;8.20;;;3.42;;
68455;SDS011;55437;55.046;38.838;2023-07-29T11:01:54;9.55;;;3.80;;
68455;SDS011;55437;55.046;38.838;2023-07-29T11:04:31;9.68;;;4.70;;
68455;SDS011;55437;55.046;38.838;2023-07-29T11:12:42;10.52;;;4.05;;
68455;SDS011;55437;55.046;38.838;2023-07-29T11:15:15;7.72;;;3.80;;
68455;SDS011;55437;55.046;38.838;2023-07-29T11:20:22;10.63;;;4.28;;
68455;SDS011;55437;55.046;38.838;2023-07-29T11:22:56;11.00;;;4.78;;
68455;SDS011;55437;55.046;38.838;2023-07-29T11:25:27;8.68;;;3.70;;
68455;SDS011;55437;55.046;38.838;2023-07-29T11:27:55;10.80;;;4.85;;
68455;SDS011;55437;55.046;38.838;2023-07-29T11:30:25;8.48;;;4.45;;
68455;SDS011;55437;55.046;38.838;2023-07-29T11:32:57;9.52;;;4.45;;
68455;SDS011;55437;55.046;38.838;2023-07-29T11:35:24;10.48;;;4.40;;
68455;SDS011;55437;55.046;38.838;2023-07-29T11:37:51;8.90;;;4.10;;
68455;SDS011;55437;55.046;38.838;2023-07-29T11:40:22;8.77;;;4.10;;
68455;SDS011;55437;55.046;38.838;2023-07-29T11:42:50;10.82;;;4.55;;
68455;SDS011;55437;55.046;38.838;2023-07-29T11:45:16;10.25;;;4.13;;
68455;SDS011;55437;55.046;38.838;2023-07-29T11:47:43;11.00;;;4.60;;
68455;SDS011;55437;55.046;38.838;2023-07-29T11:50:09;16.40;;;4.45;;
68455;SDS011;55437;55.046;38.838;2023-07-29T11:52:37;13.93;;;6.88;;
68455;SDS011;55437;55.046;38.838;2023-07-29T11:55:05;14.30;;;6.20;;
68455;SDS011;55437;55.046;38.838;2023-07-29T11:57:35;14.52;;;5.97;;
68455;SDS011;55437;55.046;38.838;2023-07-29T12:00:03;10.65;;;3.90;;
68455;SDS011;55437;55.046;38.838;2023-07-29T12:02:42;9.95;;;4.03;;
68455;SDS011;55437;55.046;38.838;2023-07-29T12:05:11;11.05;;;4.90;;
68455;SDS011;55437;55.046;38.838;2023-07-29T12:07:38;16.35;;;6.00;;
68455;SDS011;55437;55.046;38.838;2023-07-29T12:10:05;15.35;;;7.65;;
68455;SDS011;55437;55.046;38.838;2023-07-29T12:12:31;17.25;;;8.05;;
68455;SDS011;55437;55.046;38.838;2023-07-29T12:15:00;17.10;;;7.95;;
68455;SDS011;55437;55.046;38.838;2023-07-29T12:17:30;15.90;;;7.40;;
68455;SDS011;55437;55.046;38.838;2023-07-29T12:19:56;16.73;;;8.35;;
68455;SDS011;55437;55.046;38.838;2023-07-29T12:22:22;14.27;;;7.05;;
68455;SDS011;55437;55.046;38.838;2023-07-29T12:24:50;13.18;;;6.85;;
68455;SDS011;55437;55.046;38.838;2023-07-29T12:27:17;19.80;;;8.88;;
68455;SDS011;55437;55.046;38.838;2023-07-29T12:29:45;12.23;;;6.38;;
68455;SDS011;55437;55.046;38.838;2023-07-29T12:32:15;14.27;;;7.32;;
68455;SDS011;55437;55.046;38.838;2023-07-29T12:34:41;14.88;;;7.13;;
68455;SDS011;55437;55.046;38.838;2023-07-29T12:37:13;14.02;;;7.18;;
68455;SDS011;55437;55.046;38.838;2023-07-29T12:39:40;14.55;;;7.72;;
68455;SDS011;55437;55.046;38.838;2023-07-29T12:44:38;14.13;;;5.53;;
68455;SDS011;55437;55.046;38.838;2023-07-29T12:49:32;11.63;;;5.10;;
68455;SDS011;55437;55.046;38.838;2023-07-29T12:52:01;10.80;;;4.78;;
68455;SDS011;55437;55.046;38.838;2023-07-29T12:56:52;9.43;;;5.13;;
68455;SDS011;55437;55.046;38.838;2023-07-29T12:59:18;13.18;;;7.22;;
68455;SDS011;55437;55.046;38.838;2023-07-29T13:02:02;12.38;;;6.82;;
68455;SDS011;55437;55.046;38.838;2023-07-29T13:04:29;10.02;;;5.05;;
68455;SDS011;55437;55.046;38.838;2023-07-29T13:06:56;13.93;;;6.32;;
68455;SDS011;55437;55.046;38.838;2023-07-29T13:09:22;11.30;;;5.88;;
68455;SDS011;55437;55.046;38.838;2023-07-29T13:11:48;9.73;;;5.03;;
68455;SDS011;55437;55.046;38.838;2023-07-29T13:14:14;10.63;;;5.53;;
68455;SDS011;55437;55.046;38.838;2023-07-29T13:16:41;10.35;;;5.30;;
68455;SDS011;55437;55.046;38.838;2023-07-29T13:19:07;10.18;;;5.30;;
68455;SDS011;55437;55.046;38.838;2023-07-29T13:21:33;9.32;;;4.60;;
68455;SDS011;55437;55.046;38.838;2023-07-29T13:24:02;8.93;;;4.80;;
68455;SDS011;55437;55.046;38.838;2023-07-29T13:26:28;10.82;;;5.93;;
68455;SDS011;55437;55.046;38.838;2023-07-29T13:28:54;11.00;;;6.18;;
68455;SDS011;55437;55.046;38.838;2023-07-29T13:31:21;12.30;;;6.10;;
68455;SDS011;55437;55.046;38.838;2023-07-29T13:33:47;10.68;;;5.82;;
68455;SDS011;55437;55.046;38.838;2023-07-29T13:36:13;14.05;;;5.82;;
68455;SDS011;55437;55.046;38.838;2023-07-29T13:38:39;11.52;;;5.20;;
68455;SDS011;55437;55.046;38.838;2023-07-29T13:41:05;9.10;;;4.22;;
68455;SDS011;55437;55.046;38.838;2023-07-29T13:43:31;8.90;;;4.47;;
68455;SDS011;55437;55.046;38.838;2023-07-29T13:45:57;10.77;;;4.68;;
68455;SDS011;55437;55.046;38.838;2023-07-29T13:48:23;16.88;;;9.82;;
68455;SDS011;55437;55.046;38.838;2023-07-29T13:50:48;11.20;;;5.50;;
68455;SDS011;55437;55.046;38.838;2023-07-29T13:53:14;12.07;;;6.25;;
68455;SDS011;55437;55.046;38.838;2023-07-29T13:55:41;13.38;;;6.93;;
68455;SDS011;55437;55.046;38.838;2023-07-29T13:58:07;15.68;;;8.48;;
68455;SDS011;55437;55.046;38.838;2023-07-29T14:00:33;18.85;;;8.73;;
68455;SDS011;55437;55.046;38.838;2023-07-29T14:02:59;16.90;;;8.90;;
68455;SDS011;55437;55.046;38.838;2023-07-29T14:05:27;19.92;;;9.13;;
68455;SDS011;55437;55.046;38.838;2023-07-29T14:07:53;18.50;;;10.23;;
68455;SDS011;55437;55.046;38.838;2023-07-29T14:10:25;19.10;;;10.38;;
68455;SDS011;55437;55.046;38.838;2023-07-29T14:12:51;16.45;;;8.85;;
68455;SDS011;55437;55.046;38.838;2023-07-29T14:15:17;19.38;;;9.73;;
68455;SDS011;55437;55.046;38.838;2023-07-29T14:17:46;17.27;;;8.80;;
68455;SDS011;55437;55.046;38.838;2023-07-29T14:20:13;15.82;;;8.95;;
68455;SDS011;55437;55.046;38.838;2023-07-29T14:22:42;20.88;;;9.93;;
68455;SDS011;55437;55.046;38.838;2023-07-29T14:25:08;17.40;;;9.13;;
68455;SDS011;55437;55.046;38.838;2023-07-29T14:27:34;25.42;;;14.88;;
68455;SDS011;55437;55.046;38.838;2023-07-29T14:30:00;17.52;;;8.30;;
68455;SDS011;55437;55.046;38.838;2023-07-29T14:32:45;14.93;;;7.93;;
68455;SDS011;55437;55.046;38.838;2023-07-29T14:35:11;14.80;;;8.43;;
68455;SDS011;55437;55.046;38.838;2023-07-29T14:37:38;18.38;;;9.30;;
68455;SDS011;55437;55.046;38.838;2023-07-29T14:40:05;16.08;;;8.48;;
68455;SDS011;55437;55.046;38.838;2023-07-29T14:42:32;14.07;;;8.00;;
68455;SDS011;55437;55.046;38.838;2023-07-29T14:44:58;13.13;;;7.68;;
68455;SDS011;55437;55.046;38.838;2023-07-29T14:47:25;14.25;;;7.20;;
68455;SDS011;55437;55.046;38.838;2023-07-29T14:49:51;20.30;;;12.93;;
68455;SDS011;55437;55.046;38.838;2023-07-29T14:52:17;15.10;;;7.15;;
68455;SDS011;55437;55.046;38.838;2023-07-29T14:54:43;14.60;;;7.28;;
68455;SDS011;55437;55.046;38.838;2023-07-29T14:57:09;10.88;;;5.38;;